createdAt,value
2019-04-30T00:00:51.226Z,43.35
2019-04-30T00:03:30.779Z,43.35
2019-04-30T00:06:00.613Z,49.18
2019-04-30T00:08:35.472Z,45.92
2019-04-30T00:11:02.278Z,44.18
2019-04-30T00:13:32.201Z,51.37
2019-04-30T00:16:05.343Z,46.58
2019-04-30T00:18:38.203Z,46.30
2019-04-30T00:21:10.095Z,51.68
2019-04-30T00:23:38.088Z,55.67
2019-04-30T00:26:10.286Z,52.10
2019-04-30T00:28:47.687Z,50.55
2019-04-30T00:31:17.611Z,48.63
2019-04-30T00:33:47.491Z,54.18
2019-04-30T00:36:17.885Z,49.80
2019-04-30T00:38:47.991Z,41.83
2019-04-30T00:41:19.483Z,56.53
2019-04-30T00:43:50.856Z,51.20
2019-04-30T00:46:25.302Z,51.28
2019-04-30T00:48:56.755Z,49.38
2019-04-30T00:51:26.842Z,43.28
2019-04-30T00:53:57.430Z,53.00
2019-04-30T00:56:28.337Z,60.95
2019-04-30T00:59:02.443Z,60.45
2019-04-30T01:01:51.507Z,55.17
2019-04-30T01:04:34.955Z,63.52
2019-04-30T01:07:10.608Z,62.53
2019-04-30T01:09:46.489Z,65.50
2019-04-30T01:12:19.135Z,56.50
2019-04-30T01:14:45.589Z,61.98
2019-04-30T01:17:15.659Z,74.00
2019-04-30T01:19:45.895Z,61.35
2019-04-30T01:22:21.579Z,69.07
2019-04-30T01:24:49.637Z,70.42
2019-04-30T01:27:20.086Z,64.87
2019-04-30T01:29:50.173Z,66.70
2019-04-30T01:32:21.103Z,68.78
2019-04-30T01:34:53.870Z,56.98
2019-04-30T01:37:28.702Z,69.92
2019-04-30T01:39:54.989Z,65.62
2019-04-30T01:42:25.211Z,73.42
2019-04-30T01:44:55.459Z,69.37
2019-04-30T01:47:27.617Z,89.00
2019-04-30T01:50:00.986Z,75.05
2019-04-30T01:52:49.331Z,84.90
2019-04-30T01:55:21.414Z,74.10
2019-04-30T01:58:10.651Z,65.52
2019-04-30T02:00:52.647Z,71.12
2019-04-30T02:03:22.874Z,75.47
2019-04-30T02:05:53.055Z,75.03
2019-04-30T02:08:22.886Z,78.72
2019-04-30T02:10:52.993Z,82.20
2019-04-30T02:13:23.712Z,72.15
2019-04-30T02:15:53.702Z,70.95
2019-04-30T02:18:23.548Z,78.20
2019-04-30T02:20:54.067Z,79.75
2019-04-30T02:23:23.858Z,71.70
2019-04-30T02:25:54.309Z,72.95
2019-04-30T02:28:25.089Z,71.33
2019-04-30T02:30:59.873Z,67.27
2019-04-30T02:33:30.629Z,62.25
2019-04-30T02:36:14.979Z,64.72
2019-04-30T02:38:49.414Z,55.20
2019-04-30T02:41:20.903Z,67.27
2019-04-30T02:43:51.125Z,68.22
2019-04-30T02:46:21.503Z,70.10
2019-04-30T02:48:52.093Z,68.52
2019-04-30T02:51:22.946Z,65.12
2019-04-30T02:54:24.626Z,62.25
2019-04-30T02:57:13.687Z,61.15
2019-04-30T03:00:05.779Z,54.75
2019-04-30T03:02:36.028Z,53.85
2019-04-30T03:05:10.239Z,49.80
2019-04-30T03:07:40.695Z,54.35
2019-04-30T03:10:11.200Z,48.05
2019-04-30T03:12:41.210Z,54.67
2019-04-30T03:15:11.350Z,53.92
2019-04-30T03:17:57.027Z,59.67
2019-04-30T03:20:49.763Z,56.37
2019-04-30T03:23:20.236Z,55.43
2019-04-30T03:25:50.537Z,54.90
2019-04-30T03:28:20.705Z,50.20
2019-04-30T03:30:56.729Z,48.68
2019-04-30T03:33:23.298Z,51.73
2019-04-30T03:35:55.388Z,55.33
2019-04-30T03:38:26.059Z,60.48
2019-04-30T03:40:56.160Z,58.78
2019-04-30T03:43:26.145Z,58.68
2019-04-30T03:45:56.093Z,55.05
2019-04-30T03:48:26.042Z,55.85
2019-04-30T03:50:57.385Z,59.18
2019-04-30T03:53:29.915Z,64.72
2019-04-30T03:56:01.461Z,58.05
2019-04-30T03:58:31.914Z,56.50
2019-04-30T04:01:20.260Z,53.25
2019-04-30T04:04:12.778Z,53.90
2019-04-30T04:06:49.019Z,50.98
2019-04-30T04:09:29.791Z,55.67
2019-04-30T04:12:20.479Z,49.00
2019-04-30T04:14:50.969Z,43.35
2019-04-30T04:17:21.054Z,50.88
2019-04-30T04:19:51.608Z,57.03
2019-04-30T04:22:21.504Z,58.10
2019-04-30T04:24:52.481Z,51.70
2019-04-30T04:27:22.771Z,56.98
2019-04-30T04:29:52.731Z,57.30
2019-04-30T04:32:24.322Z,50.35
2019-04-30T04:34:55.625Z,48.50
2019-04-30T04:37:25.430Z,52.90
2019-04-30T04:39:55.353Z,53.15
2019-04-30T04:42:25.467Z,58.75
2019-04-30T04:44:55.359Z,54.13
2019-04-30T04:47:25.590Z,46.75
2019-04-30T04:49:55.414Z,51.13
2019-04-30T04:52:25.330Z,42.45
2019-04-30T04:54:55.246Z,42.67
2019-04-30T04:57:26.085Z,46.85
2019-04-30T04:59:56.423Z,46.48
2019-04-30T05:02:32.805Z,42.88
2019-04-30T05:05:02.119Z,43.87
2019-04-30T05:07:32.557Z,39.48
2019-04-30T05:10:02.885Z,35.33
2019-04-30T05:12:33.037Z,32.95
2019-04-30T05:15:03.311Z,36.17
2019-04-30T05:17:33.366Z,32.30
2019-04-30T05:20:03.621Z,32.83
2019-04-30T05:22:33.517Z,30.60
2019-04-30T05:25:03.832Z,31.33
2019-04-30T05:27:34.153Z,32.95
2019-04-30T05:30:04.453Z,29.57
2019-04-30T05:32:35.465Z,28.07
2019-04-30T05:35:05.749Z,27.60
2019-04-30T05:37:38.481Z,26.87
2019-04-30T05:40:10.163Z,28.07
2019-04-30T05:42:40.443Z,24.70
2019-04-30T05:45:10.869Z,26.12
2019-04-30T05:47:41.171Z,27.25
2019-04-30T05:50:11.138Z,29.12
2019-04-30T05:52:41.419Z,28.77
2019-04-30T05:55:11.582Z,27.80
2019-04-30T05:57:53.034Z,24.63
2019-04-30T06:00:13.427Z,24.23
2019-04-30T06:02:43.632Z,28.05
2019-04-30T06:05:13.927Z,29.82
2019-04-30T06:07:44.556Z,24.92
2019-04-30T06:10:24.669Z,25.77
2019-04-30T06:13:09.667Z,24.32
2019-04-30T06:15:58.983Z,24.43
2019-04-30T06:18:29.260Z,27.15
2019-04-30T06:20:59.578Z,25.57
2019-04-30T06:23:31.201Z,24.65
2019-04-30T06:26:09.425Z,26.12
2019-04-30T06:28:33.028Z,25.12
2019-04-30T06:31:03.608Z,22.27
2019-04-30T06:33:33.520Z,21.02
2019-04-30T06:36:03.724Z,24.35
2019-04-30T06:38:34.024Z,25.02
2019-04-30T06:41:04.145Z,20.08
2019-04-30T06:43:34.369Z,21.87
2019-04-30T06:46:04.922Z,21.17
2019-04-30T06:48:35.540Z,19.95
2019-04-30T06:51:06.022Z,21.07
2019-04-30T06:53:36.182Z,23.30
2019-04-30T06:56:05.947Z,24.23
2019-04-30T06:58:36.030Z,20.48
2019-04-30T07:01:06.426Z,22.10
2019-04-30T07:03:36.248Z,17.92
2019-04-30T07:06:06.007Z,21.68
2019-04-30T07:09:03.987Z,19.77
2019-04-30T07:11:39.107Z,18.65
2019-04-30T07:14:10.737Z,18.80
2019-04-30T07:16:41.168Z,21.90
2019-04-30T07:19:11.678Z,21.90
2019-04-30T07:21:42.839Z,21.17
2019-04-30T07:24:13.780Z,20.30
2019-04-30T07:26:45.114Z,22.27
2019-04-30T07:29:15.874Z,21.45
2019-04-30T07:31:45.822Z,21.45
2019-04-30T07:34:16.038Z,22.37
2019-04-30T07:36:49.307Z,22.93
2019-04-30T07:39:19.238Z,21.42
2019-04-30T07:41:49.641Z,17.32
2019-04-30T07:44:30.984Z,17.15
2019-04-30T07:46:52.162Z,19.30
2019-04-30T07:49:22.254Z,18.90
2019-04-30T07:51:53.154Z,17.98
2019-04-30T07:54:24.141Z,20.15
2019-04-30T07:56:53.857Z,24.60
2019-04-30T07:59:25.610Z,23.22
2019-04-30T08:02:06.426Z,19.10
2019-04-30T08:04:51.298Z,21.95
2019-04-30T08:07:22.003Z,17.73
2019-04-30T08:09:51.962Z,18.17
2019-04-30T08:12:30.119Z,23.73
2019-04-30T08:14:53.988Z,19.85
2019-04-30T08:17:23.784Z,24.12
2019-04-30T08:19:53.998Z,21.85
2019-04-30T08:22:23.805Z,21.93
2019-04-30T08:24:53.552Z,23.27
2019-04-30T08:27:23.745Z,22.70
2019-04-30T08:29:53.573Z,18.10
2019-04-30T08:32:24.068Z,24.77
2019-04-30T08:34:54.106Z,21.60
2019-04-30T08:37:24.305Z,17.42
2019-04-30T08:39:54.224Z,16.45
2019-04-30T08:42:31.670Z,19.40
2019-04-30T08:44:56.224Z,18.20
2019-04-30T08:47:28.963Z,18.85
2019-04-30T08:49:59.483Z,21.12
2019-04-30T08:52:30.524Z,18.07
2019-04-30T08:55:12.979Z,18.67
2019-04-30T08:57:32.346Z,18.15
2019-04-30T09:00:02.253Z,19.50
2019-04-30T09:02:33.602Z,21.40
2019-04-30T09:05:09.463Z,17.27
2019-04-30T09:07:39.471Z,21.15
2019-04-30T09:10:09.392Z,18.20
2019-04-30T09:12:39.954Z,20.02
2019-04-30T09:15:10.974Z,21.10
2019-04-30T09:17:41.145Z,23.27
2019-04-30T09:20:11.065Z,16.42
2019-04-30T09:22:41.071Z,17.00
2019-04-30T09:25:11.648Z,16.40
2019-04-30T09:27:42.422Z,19.45
2019-04-30T09:30:12.371Z,19.73
2019-04-30T09:32:42.461Z,17.23
2019-04-30T09:35:12.430Z,16.60
2019-04-30T09:37:42.359Z,16.02
2019-04-30T09:40:18.299Z,15.45
2019-04-30T09:42:44.134Z,19.60
2019-04-30T09:45:13.987Z,20.17
2019-04-30T09:47:43.765Z,15.15
2019-04-30T09:50:14.010Z,17.65
2019-04-30T09:52:44.368Z,18.67
2019-04-30T09:55:14.491Z,16.70
2019-04-30T09:57:45.159Z,16.77
2019-04-30T10:00:16.069Z,18.32
2019-04-30T10:02:46.326Z,17.62
2019-04-30T10:05:18.021Z,17.15
2019-04-30T10:07:49.339Z,14.93
2019-04-30T10:10:23.020Z,15.65
2019-04-30T10:12:53.470Z,13.58
2019-04-30T10:15:34.916Z,16.52
2019-04-30T10:18:05.695Z,15.00
2019-04-30T10:20:41.632Z,14.25
2019-04-30T10:23:11.569Z,13.13
2019-04-30T10:25:41.752Z,15.40
2019-04-30T10:28:11.657Z,15.70
2019-04-30T10:30:41.880Z,15.08
2019-04-30T10:33:12.214Z,18.10
2019-04-30T10:35:42.128Z,12.95
2019-04-30T10:38:12.053Z,16.65
2019-04-30T10:40:42.550Z,16.27
2019-04-30T10:43:12.872Z,10.80
2019-04-30T10:45:42.889Z,13.78
2019-04-30T10:48:13.179Z,14.10
2019-04-30T10:50:43.487Z,17.07
2019-04-30T10:53:13.682Z,13.15
2019-04-30T10:55:43.796Z,11.38
2019-04-30T10:58:15.469Z,13.05
2019-04-30T11:00:49.878Z,12.68
2019-04-30T11:03:22.971Z,12.18
2019-04-30T11:05:52.260Z,10.10
2019-04-30T11:08:22.183Z,13.50
2019-04-30T11:10:52.218Z,15.23
2019-04-30T11:13:22.177Z,11.95
2019-04-30T11:15:51.935Z,13.65
2019-04-30T11:18:22.095Z,12.00
2019-04-30T11:20:52.373Z,13.05
2019-04-30T11:23:22.940Z,12.90
2019-04-30T11:25:53.725Z,13.83
2019-04-30T11:28:26.235Z,13.45
2019-04-30T11:31:16.907Z,13.80
2019-04-30T11:33:47.586Z,14.23
2019-04-30T11:36:19.364Z,9.73
2019-04-30T11:38:49.836Z,11.12
2019-04-30T11:41:30.057Z,14.73
2019-04-30T11:43:51.676Z,11.83
2019-04-30T11:47:04.726Z,11.55
2019-04-30T11:49:34.676Z,13.43
2019-04-30T11:52:04.702Z,11.80
2019-04-30T11:54:34.476Z,13.10
2019-04-30T11:57:05.130Z,11.65
2019-04-30T11:59:35.333Z,14.03
2019-04-30T12:02:12.201Z,9.55
2019-04-30T12:04:42.344Z,13.05
2019-04-30T12:07:22.924Z,12.10
2019-04-30T12:10:15.276Z,12.20
2019-04-30T12:12:45.608Z,14.40
2019-04-30T12:15:15.810Z,12.80
2019-04-30T12:17:46.036Z,12.63
2019-04-30T12:20:15.942Z,9.20
2019-04-30T12:22:45.888Z,12.53
2019-04-30T12:25:16.196Z,11.63
2019-04-30T12:27:48.820Z,12.50
2019-04-30T12:30:20.707Z,10.93
2019-04-30T12:32:50.921Z,10.40
2019-04-30T12:35:21.048Z,10.53
2019-04-30T12:37:52.507Z,10.43
2019-04-30T12:40:28.731Z,9.60
2019-04-30T12:42:54.671Z,12.98
2019-04-30T12:45:24.549Z,8.88
2019-04-30T12:47:58.836Z,12.73
2019-04-30T12:50:49.142Z,7.60
2019-04-30T12:53:37.606Z,7.00
2019-04-30T12:56:27.277Z,10.13
2019-04-30T12:58:58.291Z,9.70
2019-04-30T13:01:31.775Z,10.13
2019-04-30T13:04:01.470Z,9.20
2019-04-30T13:06:32.517Z,10.70
2019-04-30T13:09:03.305Z,9.03
2019-04-30T13:11:34.586Z,8.63
2019-04-30T13:14:05.611Z,7.47
2019-04-30T13:16:35.983Z,11.38
2019-04-30T13:19:05.862Z,8.25
2019-04-30T13:21:36.018Z,8.23
2019-04-30T13:24:05.849Z,9.30
2019-04-30T13:26:36.158Z,7.87
2019-04-30T13:29:11.663Z,6.58
2019-04-30T13:31:41.983Z,7.60
2019-04-30T13:34:30.016Z,12.70
2019-04-30T13:37:00.204Z,8.25
2019-04-30T13:39:47.524Z,10.00
2019-04-30T13:42:29.357Z,9.60
2019-04-30T13:44:59.776Z,7.08
2019-04-30T13:47:30.458Z,8.33
2019-04-30T13:50:00.687Z,12.50
2019-04-30T13:52:31.068Z,8.08
2019-04-30T13:55:01.797Z,10.32
2019-04-30T13:57:34.202Z,7.03
2019-04-30T14:00:03.764Z,15.78
2019-04-30T14:02:36.840Z,10.08
2019-04-30T14:05:13.593Z,10.08
2019-04-30T14:10:50.665Z,9.00
2019-04-30T14:13:20.849Z,7.70
2019-04-30T14:15:50.800Z,8.63
2019-04-30T14:18:28.447Z,12.35
2019-04-30T14:20:52.868Z,7.65
2019-04-30T14:23:22.885Z,8.60
2019-04-30T14:25:56.532Z,9.03
2019-04-30T14:28:25.069Z,9.03
2019-04-30T14:30:55.396Z,9.13
2019-04-30T14:33:26.817Z,7.10
2019-04-30T14:35:56.850Z,8.15
2019-04-30T14:38:26.841Z,6.15
2019-04-30T14:40:56.825Z,8.18
2019-04-30T14:43:42.539Z,6.12
2019-04-30T14:46:32.460Z,6.95
2019-04-30T14:49:22.145Z,7.05
2019-04-30T14:51:52.664Z,7.50
2019-04-30T14:54:28.866Z,8.58
2019-04-30T14:57:06.047Z,7.40
2019-04-30T14:59:58.825Z,5.50
2019-04-30T15:02:36.319Z,5.80
2019-04-30T15:05:08.983Z,4.90
2019-04-30T15:07:39.672Z,6.47
2019-04-30T15:10:09.728Z,6.40
2019-04-30T15:12:39.906Z,4.97
2019-04-30T15:15:10.919Z,5.97
2019-04-30T15:17:41.229Z,6.15
2019-04-30T15:20:11.655Z,6.15
2019-04-30T15:22:48.801Z,5.28
2019-04-30T15:25:18.972Z,4.00
2019-04-30T15:27:49.797Z,7.92
2019-04-30T15:30:22.016Z,5.15
2019-04-30T15:32:55.808Z,3.52
2019-04-30T15:35:25.870Z,3.45
2019-04-30T15:37:59.013Z,4.20
2019-04-30T15:40:29.384Z,7.17
2019-04-30T15:43:02.387Z,4.80
2019-04-30T15:45:32.601Z,3.25
2019-04-30T15:48:02.942Z,4.62
2019-04-30T15:50:33.393Z,3.95
2019-04-30T15:53:03.700Z,8.15
2019-04-30T15:55:33.714Z,3.62
2019-04-30T15:58:17.552Z,5.92
2019-04-30T16:00:49.433Z,3.02
2019-04-30T16:03:24.166Z,4.15
2019-04-30T16:05:54.648Z,3.85
2019-04-30T16:08:48.793Z,4.83
2019-04-30T16:11:40.615Z,2.87
2019-04-30T16:14:21.766Z,4.67
2019-04-30T16:17:03.560Z,4.03
2019-04-30T16:19:33.748Z,3.20
2019-04-30T16:22:03.981Z,2.98
2019-04-30T16:24:33.892Z,3.65
2019-04-30T16:27:09.152Z,2.30
2019-04-30T16:29:40.721Z,3.75
2019-04-30T16:32:10.932Z,1.90
2019-04-30T16:34:41.349Z,2.72
2019-04-30T16:37:11.674Z,2.15
2019-04-30T16:39:43.795Z,1.52
2019-04-30T16:42:13.794Z,1.85
2019-04-30T16:44:44.870Z,1.80
2019-04-30T16:47:16.933Z,4.65
2019-04-30T16:49:49.260Z,3.00
2019-04-30T16:52:19.176Z,1.72
2019-04-30T16:54:49.924Z,2.33
2019-04-30T16:57:21.210Z,2.47
2019-04-30T16:59:53.432Z,2.58
2019-04-30T17:02:26.104Z,2.70
2019-04-30T17:05:01.939Z,2.45
2019-04-30T17:07:57.029Z,3.87
2019-04-30T17:10:55.231Z,4.30
2019-04-30T17:13:47.404Z,3.90
2019-04-30T17:16:21.627Z,1.47
2019-04-30T17:18:51.567Z,1.70
2019-04-30T17:21:21.644Z,1.85
2019-04-30T17:23:52.350Z,2.52
2019-04-30T17:26:22.658Z,6.42
2019-04-30T17:28:52.505Z,6.42
2019-04-30T17:31:22.509Z,1.80
2019-04-30T17:33:53.006Z,2.12
2019-04-30T17:36:22.966Z,1.85
2019-04-30T17:38:53.385Z,2.47
2019-04-30T17:41:23.760Z,1.95
2019-04-30T17:43:54.008Z,2.33
2019-04-30T17:46:24.236Z,3.12
2019-04-30T17:48:55.335Z,1.72
2019-04-30T17:51:25.290Z,1.82
2019-04-30T17:54:14.740Z,11.95
2019-04-30T17:56:45.375Z,3.62
2019-04-30T17:59:15.352Z,12.93
2019-04-30T18:01:52.155Z,7.72
2019-04-30T18:04:22.444Z,7.65
2019-04-30T18:06:53.973Z,3.20
2019-04-30T18:09:24.001Z,2.77
2019-04-30T18:11:54.268Z,7.42
2019-04-30T18:14:24.534Z,3.20
2019-04-30T18:16:54.315Z,4.47
2019-04-30T18:19:34.202Z,2.70
2019-04-30T18:22:09.515Z,5.20
2019-04-30T18:25:02.958Z,3.15
2019-04-30T18:27:45.361Z,2.83
2019-04-30T18:30:12.199Z,3.02
2019-04-30T18:32:42.343Z,1.98
2019-04-30T18:35:12.512Z,3.27
2019-04-30T18:37:42.837Z,3.72
2019-04-30T18:40:12.726Z,4.87
2019-04-30T18:42:42.655Z,2.25
2019-04-30T18:45:12.643Z,2.70
2019-04-30T18:47:42.549Z,3.72
2019-04-30T18:50:12.517Z,4.47
2019-04-30T18:52:43.079Z,4.00
2019-04-30T18:55:13.345Z,3.12
2019-04-30T18:57:55.766Z,3.00
2019-04-30T19:00:19.781Z,3.02
2019-04-30T19:02:50.473Z,2.05
2019-04-30T19:05:26.896Z,2.72
2019-04-30T19:08:02.446Z,2.85
2019-04-30T19:10:55.639Z,1.80
2019-04-30T19:13:44.636Z,4.65
2019-04-30T19:16:33.002Z,2.35
2019-04-30T19:19:12.778Z,3.95
2019-04-30T19:21:42.866Z,2.27
2019-04-30T19:24:12.743Z,7.87
2019-04-30T19:26:43.663Z,4.03
2019-04-30T19:29:13.546Z,3.35
2019-04-30T19:31:43.457Z,4.75
2019-04-30T19:34:13.513Z,3.60
2019-04-30T19:36:43.495Z,4.08
2019-04-30T19:39:15.433Z,3.35
2019-04-30T19:41:45.395Z,3.50
2019-04-30T19:44:15.317Z,3.87
2019-04-30T19:46:45.759Z,4.08
2019-04-30T19:49:16.187Z,2.77
2019-04-30T19:51:46.155Z,4.58
2019-04-30T19:54:16.136Z,4.97
2019-04-30T19:56:46.086Z,3.05
2019-04-30T19:59:16.284Z,2.85
2019-04-30T20:01:48.821Z,3.72
2019-04-30T20:04:18.955Z,4.12
2019-04-30T20:06:49.584Z,3.67
2019-04-30T20:09:19.795Z,5.60
2019-04-30T20:11:49.679Z,3.00
2019-04-30T20:14:19.521Z,3.60
2019-04-30T20:16:49.652Z,2.80
2019-04-30T20:19:19.946Z,5.53
2019-04-30T20:21:53.640Z,4.33
2019-04-30T20:24:21.543Z,3.22
2019-04-30T20:26:58.248Z,3.37
2019-04-30T20:29:23.060Z,3.90
2019-04-30T20:31:52.831Z,3.92
2019-04-30T20:34:23.946Z,6.62
2019-04-30T20:36:54.195Z,3.92
2019-04-30T20:39:39.602Z,7.28
2019-04-30T20:42:09.776Z,4.45
2019-04-30T20:44:39.908Z,4.35
2019-04-30T20:47:10.826Z,3.62
2019-04-30T20:49:40.689Z,4.45
2019-04-30T20:52:10.986Z,6.08
2019-04-30T20:54:40.695Z,4.28
2019-04-30T20:57:10.582Z,5.72
2019-04-30T20:59:41.126Z,6.25
2019-04-30T21:02:11.118Z,5.10
2019-04-30T21:04:41.443Z,8.03
2019-04-30T21:07:12.044Z,6.05
2019-04-30T21:09:42.112Z,4.15
2019-04-30T21:12:12.023Z,4.30
2019-04-30T21:14:41.946Z,5.33
2019-04-30T21:17:11.754Z,4.42
2019-04-30T21:19:41.601Z,6.15
2019-04-30T21:22:11.813Z,8.68
2019-04-30T21:24:41.970Z,7.97
2019-04-30T21:27:12.844Z,4.87
2019-04-30T21:29:44.206Z,5.08
2019-04-30T21:32:22.609Z,6.15
2019-04-30T21:34:56.426Z,6.15
2019-04-30T21:37:27.121Z,6.50
2019-04-30T21:39:58.536Z,6.35
2019-04-30T21:42:28.520Z,6.08
2019-04-30T21:44:58.647Z,5.90
2019-04-30T21:47:28.510Z,5.65
2019-04-30T21:49:58.419Z,9.35
2019-04-30T21:52:28.939Z,5.08
2019-04-30T21:54:59.588Z,7.95
2019-04-30T21:57:29.559Z,5.50
2019-04-30T21:59:59.307Z,6.33
2019-04-30T22:02:29.342Z,6.58
2019-04-30T22:04:59.219Z,6.60
2019-04-30T22:07:29.458Z,5.15
2019-04-30T22:09:59.743Z,5.53
2019-04-30T22:12:31.211Z,6.15
2019-04-30T22:15:02.435Z,6.20
2019-04-30T22:17:34.261Z,6.42
2019-04-30T22:20:07.232Z,7.65
2019-04-30T22:22:36.472Z,4.65
2019-04-30T22:25:06.375Z,4.78
2019-04-30T22:27:36.955Z,4.87
2019-04-30T22:30:07.199Z,4.78
2019-04-30T22:32:37.288Z,6.45
2019-04-30T22:35:43.915Z,4.47
2019-04-30T22:38:16.435Z,8.28
2019-04-30T22:40:48.759Z,5.30
2019-04-30T22:43:18.449Z,6.72
2019-04-30T22:45:54.262Z,6.10
2019-04-30T22:48:24.295Z,4.58
2019-04-30T22:50:54.811Z,4.50
2019-04-30T22:53:25.250Z,6.00
2019-04-30T22:55:55.379Z,5.45
2019-04-30T22:58:25.661Z,5.85
2019-04-30T23:01:04.081Z,7.35
2019-04-30T23:03:34.121Z,7.37
2019-04-30T23:06:04.369Z,4.60
2019-04-30T23:08:34.352Z,5.83
2019-04-30T23:11:04.601Z,4.15
2019-04-30T23:13:35.651Z,6.55
2019-04-30T23:16:05.937Z,5.97
2019-04-30T23:18:36.275Z,5.20
2019-04-30T23:21:06.111Z,6.65
2019-04-30T23:23:36.308Z,7.60
2019-04-30T23:26:06.126Z,5.05
2019-04-30T23:28:36.348Z,6.42
2019-04-30T23:31:06.565Z,8.40
2019-04-30T23:33:36.667Z,4.72
2019-04-30T23:36:06.777Z,7.67
2019-04-30T23:38:36.926Z,6.08
2019-04-30T23:41:07.012Z,5.45
2019-04-30T23:43:37.165Z,6.47
2019-04-30T23:46:06.976Z,4.70
2019-04-30T23:48:37.500Z,8.15
2019-04-30T23:51:07.929Z,5.78
2019-04-30T23:53:37.696Z,5.80
2019-04-30T23:56:07.563Z,6.95
2019-04-30T23:58:37.722Z,5.37
